createdAt,value
2017-02-07T00:00:04.065Z,0
2017-02-07T00:00:45.731Z,0
2017-02-07T00:03:17.061Z,0
2017-02-07T00:03:58.776Z,0
2017-02-07T00:04:40.601Z,0
2017-02-07T00:05:22.318Z,0
2017-02-07T00:06:03.911Z,0
2017-02-07T00:08:34.607Z,0
2017-02-07T00:10:55.094Z,0
2017-02-07T00:13:10.396Z,0
2017-02-07T00:13:52.128Z,0
2017-02-07T00:16:07.501Z,0
2017-02-07T00:16:49.193Z,0
2017-02-07T00:17:30.879Z,0
2017-02-07T00:21:46.182Z,0
2017-02-07T00:22:27.998Z,0
2017-02-07T00:23:09.804Z,0
2017-02-07T00:23:51.487Z,0
2017-02-07T00:24:33.246Z,0
2017-02-07T00:25:14.912Z,0
2017-02-07T00:27:14.949Z,0
2017-02-07T00:27:56.633Z,0
2017-02-07T00:28:38.410Z,0
2017-02-07T00:29:20.138Z,0
2017-02-07T00:30:01.841Z,0
2017-02-07T00:30:43.558Z,0
2017-02-07T00:31:25.376Z,0
2017-02-07T00:33:40.786Z,0
2017-02-07T00:36:17.174Z,0
2017-02-07T00:36:58.924Z,0
2017-02-07T00:42:58.266Z,0
2017-02-07T00:43:39.864Z,0
2017-02-07T00:44:21.570Z,0
2017-02-07T00:45:03.329Z,0
2017-02-07T00:45:44.980Z,0
2017-02-07T00:46:26.678Z,0
2017-02-07T00:47:08.156Z,0
2017-02-07T00:47:49.887Z,0
2017-02-07T00:48:31.581Z,0
2017-02-07T00:49:13.344Z,0
2017-02-07T00:49:55.027Z,0
2017-02-07T00:50:36.426Z,0
2017-02-07T00:55:02.128Z,0
2017-02-07T00:55:43.783Z,0
2017-02-07T00:56:25.577Z,0
2017-02-07T00:58:56.714Z,0
2017-02-07T00:59:38.487Z,0
2017-02-07T01:01:38.624Z,0
2017-02-07T01:03:59.242Z,0
2017-02-07T01:04:41.025Z,0
2017-02-07T01:05:22.685Z,0
2017-02-07T01:06:04.336Z,0
2017-02-07T01:06:45.849Z,0
2017-02-07T01:07:27.440Z,0
2017-02-07T01:08:09.218Z,0
2017-02-07T01:08:50.789Z,0
2017-02-07T01:09:32.423Z,0
2017-02-07T01:10:14.027Z,0
2017-02-07T01:10:55.658Z,0
2017-02-07T01:12:55.668Z,0
2017-02-07T01:13:37.540Z,0
2017-02-07T01:14:19.208Z,0
2017-02-07T01:15:00.836Z,0
2017-02-07T01:15:42.606Z,0
2017-02-07T01:16:24.940Z,0
2017-02-07T01:17:06.589Z,0
2017-02-07T01:17:48.413Z,0
2017-02-07T01:18:30.121Z,0
2017-02-07T01:19:11.900Z,0
2017-02-07T01:19:53.636Z,0
2017-02-07T01:20:35.343Z,0
2017-02-07T01:21:17.030Z,0
2017-02-07T01:21:58.515Z,0
2017-02-07T01:22:40.331Z,0
2017-02-07T01:23:22.126Z,0
2017-02-07T01:24:03.829Z,0
2017-02-07T01:26:34.935Z,0
2017-02-07T01:27:16.669Z,0
2017-02-07T01:27:58.394Z,0
2017-02-07T01:28:40.050Z,0
2017-02-07T01:29:21.769Z,0
2017-02-07T01:30:03.379Z,0
2017-02-07T01:30:44.904Z,0
2017-02-07T01:31:26.505Z,0
2017-02-07T01:32:08.177Z,0
2017-02-07T01:32:49.586Z,0
2017-02-07T01:33:31.356Z,0
2017-02-07T01:34:13.032Z,0
2017-02-07T01:36:33.562Z,0
2017-02-07T01:37:15.212Z,0
2017-02-07T01:37:57.012Z,0
2017-02-07T01:38:38.745Z,0
2017-02-07T01:40:38.858Z,0
2017-02-07T01:43:15.249Z,0
2017-02-07T01:45:46.372Z,0
2017-02-07T01:48:22.765Z,0
2017-02-07T01:49:04.291Z,0
2017-02-07T01:49:46.007Z,0
2017-02-07T01:50:27.493Z,0
2017-02-07T01:51:08.925Z,0
2017-02-07T01:53:45.370Z,0
2017-02-07T01:56:21.918Z,0
2017-02-07T01:57:03.692Z,0
2017-02-07T01:57:45.146Z,0
2017-02-07T01:58:26.906Z,0
2017-02-07T01:59:08.677Z,0
2017-02-07T01:59:50.423Z,0
2017-02-07T02:00:31.352Z,0
2017-02-07T02:01:11.871Z,0
2017-02-07T02:01:52.413Z,0
2017-02-07T02:02:32.884Z,0
2017-02-07T02:03:13.387Z,0
2017-02-07T02:03:53.883Z,0
2017-02-07T02:04:34.413Z,0
2017-02-07T02:05:14.929Z,0
2017-02-07T02:05:55.430Z,0
2017-02-07T02:06:35.949Z,0
2017-02-07T02:07:16.473Z,0
2017-02-07T02:07:56.976Z,0
2017-02-07T02:08:37.501Z,0
2017-02-07T02:09:18.025Z,0
2017-02-07T02:09:58.551Z,0
2017-02-07T02:10:39.053Z,0
2017-02-07T02:11:19.556Z,0
2017-02-07T02:12:00.074Z,0
2017-02-07T02:12:40.588Z,0
2017-02-07T02:13:21.097Z,0
2017-02-07T02:14:01.622Z,0
2017-02-07T02:14:42.134Z,0
2017-02-07T02:15:22.660Z,0
2017-02-07T02:16:03.174Z,0
2017-02-07T02:16:43.693Z,0
2017-02-07T02:17:24.194Z,0
2017-02-07T02:18:04.700Z,0
2017-02-07T02:18:45.204Z,0
2017-02-07T02:19:25.726Z,0
2017-02-07T02:20:06.244Z,0
2017-02-07T02:20:46.745Z,0
2017-02-07T02:21:27.249Z,0
2017-02-07T02:22:07.737Z,0
2017-02-07T02:22:48.257Z,0
2017-02-07T02:23:28.774Z,0
2017-02-07T02:24:09.267Z,0
2017-02-07T02:24:49.777Z,0
2017-02-07T02:25:30.271Z,0
2017-02-07T02:26:10.785Z,0
2017-02-07T02:26:51.297Z,0
2017-02-07T02:27:31.827Z,0
2017-02-07T02:28:12.353Z,0
2017-02-07T02:28:52.894Z,0
2017-02-07T02:29:33.391Z,0
2017-02-07T02:30:13.899Z,0
2017-02-07T02:30:54.409Z,0
2017-02-07T02:31:34.949Z,0
2017-02-07T02:32:15.460Z,0
2017-02-07T02:32:55.961Z,0
2017-02-07T02:33:36.487Z,0
2017-02-07T02:34:16.992Z,0
2017-02-07T02:34:57.511Z,0
2017-02-07T02:35:38.020Z,0
2017-02-07T02:36:18.543Z,0
2017-02-07T02:36:59.028Z,0
2017-02-07T02:37:39.541Z,0
2017-02-07T02:38:20.062Z,0
2017-02-07T02:39:00.570Z,0
2017-02-07T02:39:41.077Z,0
2017-02-07T02:40:21.589Z,0
2017-02-07T02:41:02.105Z,0
2017-02-07T02:41:42.613Z,0
2017-02-07T02:42:23.127Z,0
2017-02-07T02:43:03.659Z,0
2017-02-07T02:43:44.177Z,0
2017-02-07T02:44:24.678Z,0
2017-02-07T02:45:05.194Z,0
2017-02-07T02:45:45.702Z,0
2017-02-07T02:46:26.196Z,0
2017-02-07T02:47:06.700Z,0
2017-02-07T02:47:47.200Z,0
2017-02-07T02:48:27.702Z,0
2017-02-07T02:49:08.201Z,0
2017-02-07T02:49:48.711Z,0
2017-02-07T02:50:29.218Z,0
2017-02-07T02:51:09.727Z,0
2017-02-07T02:51:50.249Z,0
2017-02-07T02:52:30.768Z,0
2017-02-07T02:53:11.300Z,0
2017-02-07T02:53:51.812Z,0
2017-02-07T02:54:32.330Z,0
2017-02-07T02:55:12.851Z,0
2017-02-07T02:55:53.352Z,0
2017-02-07T02:56:33.873Z,0
2017-02-07T02:57:14.399Z,0
2017-02-07T02:57:54.902Z,0
2017-02-07T02:58:35.425Z,0
2017-02-07T02:59:15.967Z,0
2017-02-07T02:59:56.473Z,0
2017-02-07T03:00:36.995Z,0
2017-02-07T03:01:17.525Z,0
2017-02-07T03:01:58.044Z,0
2017-02-07T03:02:38.572Z,0
2017-02-07T03:03:19.084Z,0
2017-02-07T03:03:59.612Z,0
2017-02-07T03:04:40.128Z,0
2017-02-07T03:05:20.630Z,0
2017-02-07T03:06:01.163Z,0
2017-02-07T03:06:41.678Z,0
2017-02-07T03:07:22.197Z,0
2017-02-07T03:08:02.699Z,0
2017-02-07T03:08:43.199Z,0
2017-02-07T03:09:23.728Z,0
2017-02-07T03:10:04.246Z,0
2017-02-07T03:10:44.750Z,0
2017-02-07T03:11:25.284Z,0
2017-02-07T03:12:05.793Z,0
2017-02-07T03:12:46.291Z,0
2017-02-07T03:13:26.825Z,0
2017-02-07T03:14:07.336Z,0
2017-02-07T03:14:47.845Z,0
2017-02-07T03:15:28.375Z,0
2017-02-07T03:16:08.882Z,0
2017-02-07T03:16:49.390Z,0
2017-02-07T03:17:29.899Z,0
2017-02-07T03:18:10.400Z,0
2017-02-07T03:18:50.895Z,0
2017-02-07T03:19:31.398Z,0
2017-02-07T03:20:11.905Z,0
2017-02-07T03:20:52.408Z,0
2017-02-07T03:21:32.925Z,0
2017-02-07T03:22:13.449Z,0
2017-02-07T03:22:53.941Z,0
2017-02-07T03:23:34.451Z,0
2017-02-07T03:24:14.944Z,0
2017-02-07T03:24:55.466Z,0
2017-02-07T03:25:35.952Z,0
2017-02-07T03:26:16.463Z,0
2017-02-07T03:26:56.989Z,0
2017-02-07T03:27:37.497Z,0
2017-02-07T03:28:18.024Z,0
2017-02-07T03:28:58.506Z,0
2017-02-07T03:29:39.031Z,0
2017-02-07T03:30:19.547Z,0
2017-02-07T03:31:00.096Z,0
2017-02-07T03:31:40.596Z,0
2017-02-07T03:32:21.117Z,0
2017-02-07T03:33:01.633Z,0
2017-02-07T03:33:42.130Z,0
2017-02-07T03:34:22.655Z,0
2017-02-07T03:35:03.206Z,0
2017-02-07T03:35:43.696Z,0
2017-02-07T03:36:24.242Z,0
2017-02-07T03:37:04.759Z,0
2017-02-07T03:37:45.279Z,0
2017-02-07T03:38:25.779Z,0
2017-02-07T03:39:06.302Z,0
2017-02-07T03:39:46.804Z,0
2017-02-07T03:40:27.326Z,0
2017-02-07T03:41:07.839Z,0
2017-02-07T03:41:48.357Z,0
2017-02-07T03:42:28.853Z,0
2017-02-07T03:43:09.360Z,0
2017-02-07T03:43:49.879Z,0
2017-02-07T03:44:30.391Z,0
2017-02-07T03:45:10.924Z,0
2017-02-07T03:45:51.406Z,0
2017-02-07T03:46:31.932Z,0
2017-02-07T03:47:12.441Z,0
2017-02-07T03:47:52.970Z,0
2017-02-07T03:48:33.471Z,0
2017-02-07T03:49:13.990Z,0
2017-02-07T03:49:54.512Z,0
2017-02-07T03:50:35.042Z,0
2017-02-07T03:51:15.550Z,0
2017-02-07T03:51:56.069Z,0
2017-02-07T03:52:36.575Z,0
2017-02-07T03:53:17.076Z,0
2017-02-07T03:53:57.579Z,0
2017-02-07T03:54:38.096Z,0
2017-02-07T03:55:18.621Z,0
2017-02-07T03:55:59.126Z,0
2017-02-07T03:56:39.628Z,0
2017-02-07T03:57:20.179Z,0
2017-02-07T03:58:00.702Z,0
2017-02-07T03:58:41.199Z,0
2017-02-07T03:59:21.719Z,0
2017-02-07T04:00:02.245Z,0
2017-02-07T04:00:42.740Z,0
2017-02-07T04:01:23.264Z,0
2017-02-07T04:02:03.768Z,0
2017-02-07T04:02:44.288Z,0
2017-02-07T04:03:24.797Z,0
2017-02-07T04:04:05.333Z,0
2017-02-07T04:04:45.825Z,0
2017-02-07T04:05:26.612Z,0
2017-02-07T04:07:40.864Z,0
2017-02-07T04:08:21.387Z,0
2017-02-07T04:09:01.880Z,0
2017-02-07T04:09:42.394Z,0
2017-02-07T04:10:22.916Z,0
2017-02-07T04:11:03.459Z,0
2017-02-07T04:11:43.942Z,0
2017-02-07T04:12:24.440Z,0
2017-02-07T04:13:04.955Z,0
2017-02-07T04:13:45.455Z,0
2017-02-07T04:14:25.982Z,0
2017-02-07T04:15:06.607Z,0
2017-02-07T04:15:47.036Z,0
2017-02-07T04:16:27.531Z,0
2017-02-07T04:17:08.052Z,0
2017-02-07T04:17:48.583Z,0
2017-02-07T04:18:29.361Z,0
2017-02-07T04:19:09.886Z,0
2017-02-07T04:19:50.405Z,0
2017-02-07T04:20:30.910Z,0
2017-02-07T04:21:12.328Z,0
2017-02-07T04:21:55.048Z,0
2017-02-07T04:22:37.392Z,0
2017-02-07T04:23:20.535Z,0
2017-02-07T04:24:03.614Z,0
2017-02-07T04:24:44.645Z,0
2017-02-07T04:25:25.152Z,0
2017-02-07T04:26:05.658Z,0
2017-02-07T04:26:46.176Z,0
2017-02-07T04:27:26.685Z,0
2017-02-07T04:28:07.195Z,0
2017-02-07T04:28:47.703Z,0
2017-02-07T04:29:28.203Z,0
2017-02-07T04:30:08.735Z,0
2017-02-07T04:30:49.263Z,0
2017-02-07T04:31:29.751Z,0
2017-02-07T04:32:10.269Z,0
2017-02-07T04:32:50.782Z,0
2017-02-07T04:33:31.298Z,0
2017-02-07T04:34:11.798Z,0
2017-02-07T04:34:52.318Z,0
2017-02-07T04:35:32.822Z,0
2017-02-07T04:36:13.339Z,0
2017-02-07T04:36:53.844Z,0
2017-02-07T04:37:34.355Z,0
2017-02-07T04:38:14.870Z,0
2017-02-07T04:38:55.381Z,0
2017-02-07T04:39:35.937Z,0
2017-02-07T04:40:16.453Z,0
2017-02-07T04:40:56.952Z,0
2017-02-07T04:41:37.478Z,0
2017-02-07T04:42:17.970Z,0
2017-02-07T04:43:00.336Z,0
2017-02-07T04:43:43.139Z,0
2017-02-07T04:44:26.293Z,0
2017-02-07T04:45:09.135Z,0
2017-02-07T04:45:52.725Z,0
2017-02-07T04:46:35.872Z,0
2017-02-07T04:47:18.831Z,0
2017-02-07T04:48:01.628Z,0
2017-02-07T04:48:44.250Z,0
2017-02-07T04:49:26.386Z,0
2017-02-07T04:50:08.662Z,0
2017-02-07T04:50:52.451Z,0
2017-02-07T04:52:51.574Z,0
2017-02-07T04:53:32.241Z,0
2017-02-07T04:54:12.626Z,0
2017-02-07T04:54:53.159Z,0
2017-02-07T04:55:33.682Z,0
2017-02-07T04:56:14.206Z,0
2017-02-07T04:56:54.965Z,0
2017-02-07T04:57:35.451Z,0
2017-02-07T04:58:15.949Z,0
2017-02-07T04:58:56.452Z,0
2017-02-07T04:59:36.979Z,0
2017-02-07T05:00:17.495Z,0
2017-02-07T05:00:58.010Z,0
2017-02-07T05:01:38.514Z,0
2017-02-07T05:02:19.013Z,0
2017-02-07T05:02:59.563Z,0
2017-02-07T05:03:40.079Z,0
2017-02-07T05:04:20.614Z,0
2017-02-07T05:05:01.115Z,0
2017-02-07T05:05:41.643Z,0
2017-02-07T05:06:22.136Z,0
2017-02-07T05:07:02.684Z,0
2017-02-07T05:07:43.182Z,0
2017-02-07T05:08:23.699Z,0
2017-02-07T05:09:04.209Z,0
2017-02-07T05:09:44.759Z,0
2017-02-07T05:10:25.286Z,0
2017-02-07T05:11:05.786Z,0
2017-02-07T05:11:46.303Z,0
2017-02-07T05:12:26.991Z,0
2017-02-07T05:13:07.496Z,0
2017-02-07T05:13:48.010Z,0
2017-02-07T05:14:29.459Z,0
2017-02-07T05:15:09.983Z,0
2017-02-07T05:15:50.481Z,0
2017-02-07T05:16:31.009Z,0
2017-02-07T05:17:11.510Z,0
2017-02-07T05:17:52.020Z,0
2017-02-07T05:18:33.209Z,0
2017-02-07T05:19:14.948Z,0
2017-02-07T05:19:57.714Z,0
2017-02-07T05:20:40.581Z,0
2017-02-07T05:21:23.696Z,0
2017-02-07T05:22:06.330Z,0
2017-02-07T05:24:23.638Z,0
2017-02-07T05:25:05.371Z,0
2017-02-07T05:25:45.899Z,0
2017-02-07T05:26:26.403Z,0
2017-02-07T05:27:06.911Z,0
2017-02-07T05:27:47.542Z,0
2017-02-07T05:28:28.059Z,0
2017-02-07T05:29:08.587Z,0
2017-02-07T05:29:49.315Z,0
2017-02-07T05:30:29.841Z,0
2017-02-07T05:31:10.351Z,0
2017-02-07T05:31:50.852Z,0
2017-02-07T05:32:31.365Z,0
2017-02-07T05:33:11.891Z,0
2017-02-07T05:33:52.399Z,0
2017-02-07T05:34:32.915Z,0
2017-02-07T05:35:13.573Z,0
2017-02-07T05:35:54.887Z,0
2017-02-07T05:36:37.913Z,0
2017-02-07T05:37:20.901Z,0
2017-02-07T05:38:04.151Z,0
2017-02-07T05:40:37.047Z,0
2017-02-07T05:41:19.811Z,0
2017-02-07T05:42:01.426Z,0
2017-02-07T05:42:41.913Z,0
2017-02-07T05:43:22.436Z,0
2017-02-07T05:44:02.936Z,0
2017-02-07T05:44:43.455Z,0
2017-02-07T05:45:23.972Z,0
2017-02-07T05:46:04.512Z,0
2017-02-07T05:46:45.281Z,0
2017-02-07T05:47:28.612Z,0
2017-02-07T05:48:11.699Z,0
2017-02-07T05:48:53.810Z,0
2017-02-07T05:49:36.250Z,0
2017-02-07T05:51:36.934Z,0
2017-02-07T05:52:19.614Z,0
2017-02-07T05:53:01.442Z,0
2017-02-07T05:53:42.885Z,0
2017-02-07T05:54:23.391Z,0
2017-02-07T05:55:03.895Z,0
2017-02-07T05:55:44.420Z,0
2017-02-07T05:56:24.914Z,0
2017-02-07T05:57:05.590Z,0
2017-02-07T05:57:46.092Z,0
2017-02-07T05:58:27.163Z,0
2017-02-07T05:59:10.164Z,0
2017-02-07T05:59:53.313Z,0
2017-02-07T06:00:36.813Z,0
2017-02-07T06:01:19.508Z,0
2017-02-07T06:02:02.053Z,0
2017-02-07T06:02:44.691Z,0
2017-02-07T06:05:20.442Z,0
2017-02-07T06:06:00.927Z,0
2017-02-07T06:06:41.425Z,0
2017-02-07T06:07:22.924Z,0
2017-02-07T06:08:03.427Z,0
2017-02-07T06:08:43.932Z,0
2017-02-07T06:09:24.445Z,0
2017-02-07T06:10:04.953Z,0
2017-02-07T06:10:45.489Z,0
2017-02-07T06:11:26.003Z,0
2017-02-07T06:12:06.500Z,0
2017-02-07T06:12:47.015Z,0
2017-02-07T06:13:27.554Z,0
2017-02-07T06:14:08.056Z,0
2017-02-07T06:14:48.574Z,0
2017-02-07T06:15:29.067Z,0
2017-02-07T06:16:09.613Z,0
2017-02-07T06:16:50.084Z,0
2017-02-07T06:17:30.597Z,0
2017-02-07T06:18:11.115Z,0
2017-02-07T06:18:51.632Z,0
2017-02-07T06:19:32.162Z,0
2017-02-07T06:20:12.686Z,0
2017-02-07T06:20:53.218Z,0
2017-02-07T06:21:34.481Z,0
2017-02-07T06:22:17.949Z,0
2017-02-07T06:24:18.148Z,0
2017-02-07T06:25:00.903Z,0
2017-02-07T06:27:38.707Z,0
2017-02-07T06:28:22.048Z,0
2017-02-07T06:29:05.175Z,0
2017-02-07T06:29:50.856Z,0
2017-02-07T06:30:31.410Z,0
2017-02-07T06:31:11.936Z,0
2017-02-07T06:31:52.483Z,0
2017-02-07T06:32:32.955Z,0
2017-02-07T06:33:13.500Z,0
2017-02-07T06:33:53.993Z,0
2017-02-07T06:34:34.493Z,4
2017-02-07T06:35:14.994Z,4
2017-02-07T06:35:55.493Z,0
2017-02-07T06:36:36.013Z,0
2017-02-07T06:37:16.518Z,4
2017-02-07T06:37:56.996Z,4
2017-02-07T06:38:37.509Z,4
2017-02-07T06:39:17.999Z,4
2017-02-07T06:39:58.515Z,4
2017-02-07T06:40:39.020Z,4
2017-02-07T06:41:19.519Z,4
2017-02-07T06:42:00.033Z,4
2017-02-07T06:42:40.532Z,4
2017-02-07T06:43:21.059Z,4
2017-02-07T06:44:01.588Z,8
2017-02-07T06:44:42.082Z,8
2017-02-07T06:45:22.597Z,8
2017-02-07T06:46:03.094Z,4
2017-02-07T06:46:43.589Z,8
2017-02-07T06:47:24.096Z,8
2017-02-07T06:48:04.604Z,8
2017-02-07T06:48:45.115Z,8
2017-02-07T06:49:25.649Z,8
2017-02-07T06:50:06.143Z,12
2017-02-07T06:50:46.655Z,8
2017-02-07T06:51:27.160Z,12
2017-02-07T06:52:07.669Z,12
2017-02-07T06:52:48.205Z,12
2017-02-07T06:53:28.711Z,16
2017-02-07T06:54:09.225Z,20
2017-02-07T06:54:49.713Z,16
2017-02-07T06:55:30.234Z,16
2017-02-07T06:56:10.738Z,20
2017-02-07T06:56:51.239Z,20
2017-02-07T06:57:31.772Z,20
2017-02-07T06:58:12.266Z,20
2017-02-07T06:58:52.767Z,24
2017-02-07T06:59:33.280Z,24
2017-02-07T07:00:13.789Z,28
2017-02-07T07:00:54.273Z,28
2017-02-07T07:01:34.795Z,32
2017-02-07T07:02:15.293Z,36
2017-02-07T07:02:55.782Z,36
2017-02-07T07:03:36.303Z,40
2017-02-07T07:04:16.757Z,44
2017-02-07T07:04:57.266Z,44
2017-02-07T07:05:37.777Z,48
2017-02-07T07:06:18.294Z,48
2017-02-07T07:06:58.802Z,52
2017-02-07T07:07:39.316Z,52
2017-02-07T07:08:19.838Z,52
2017-02-07T07:09:00.358Z,56
2017-02-07T07:09:40.846Z,56
2017-02-07T07:10:21.359Z,60
2017-02-07T07:11:01.902Z,56
2017-02-07T07:11:42.362Z,52
2017-02-07T07:12:22.860Z,56
2017-02-07T07:13:03.369Z,52
2017-02-07T07:13:43.871Z,52
2017-02-07T07:14:24.364Z,52
2017-02-07T07:15:04.882Z,52
2017-02-07T07:15:45.350Z,56
2017-02-07T07:16:25.864Z,56
2017-02-07T07:17:06.373Z,56
2017-02-07T07:17:46.864Z,60
2017-02-07T07:18:27.402Z,64
2017-02-07T07:19:07.893Z,68
2017-02-07T07:19:48.400Z,68
2017-02-07T07:20:28.934Z,76
2017-02-07T07:21:09.423Z,84
2017-02-07T07:21:49.938Z,88
2017-02-07T07:22:30.442Z,100
2017-02-07T07:23:10.948Z,104
2017-02-07T07:23:51.459Z,104
2017-02-07T07:24:31.961Z,112
2017-02-07T07:25:12.492Z,112
2017-02-07T07:25:52.989Z,112
2017-02-07T07:26:33.494Z,116
2017-02-07T07:27:13.973Z,120
2017-02-07T07:27:54.449Z,124
2017-02-07T07:28:34.961Z,128
2017-02-07T07:29:15.473Z,140
2017-02-07T07:29:55.992Z,144
2017-02-07T07:30:36.505Z,152
2017-02-07T07:31:17.009Z,156
2017-02-07T07:31:57.526Z,156
2017-02-07T07:32:38.035Z,160
2017-02-07T07:33:18.600Z,164
2017-02-07T07:33:59.090Z,172
2017-02-07T07:34:39.593Z,180
2017-02-07T07:35:20.130Z,188
2017-02-07T07:36:00.635Z,196
2017-02-07T07:36:41.147Z,204
2017-02-07T07:37:21.649Z,212
2017-02-07T07:38:02.185Z,216
2017-02-07T07:38:42.684Z,228
2017-02-07T07:39:23.191Z,232
2017-02-07T07:40:03.700Z,244
2017-02-07T07:40:44.200Z,252
2017-02-07T07:41:24.731Z,260
2017-02-07T07:42:05.254Z,264
2017-02-07T07:42:45.768Z,268
2017-02-07T07:43:26.281Z,268
2017-02-07T07:44:06.776Z,268
2017-02-07T07:44:47.285Z,276
2017-02-07T07:45:27.805Z,268
2017-02-07T07:46:08.302Z,268
2017-02-07T07:46:48.815Z,260
2017-02-07T07:47:29.302Z,260
2017-02-07T07:48:09.823Z,264
2017-02-07T07:48:50.338Z,268
2017-02-07T07:49:30.851Z,272
2017-02-07T07:50:11.374Z,276
2017-02-07T07:50:51.898Z,276
2017-02-07T07:51:32.403Z,288
2017-02-07T07:52:12.884Z,292
2017-02-07T07:52:53.391Z,284
2017-02-07T07:53:33.911Z,280
2017-02-07T07:54:14.400Z,272
2017-02-07T07:54:54.911Z,268
2017-02-07T07:55:35.466Z,264
2017-02-07T07:56:15.982Z,264
2017-02-07T07:56:56.467Z,272
2017-02-07T07:57:36.971Z,272
2017-02-07T07:58:17.476Z,272
2017-02-07T07:58:58.002Z,260
2017-02-07T07:59:38.517Z,248
2017-02-07T08:00:18.988Z,248
2017-02-07T08:00:59.470Z,240
2017-02-07T08:01:39.959Z,240
2017-02-07T08:02:20.451Z,232
2017-02-07T08:03:01.010Z,236
2017-02-07T08:03:41.478Z,240
2017-02-07T08:04:21.995Z,232
2017-02-07T08:05:02.488Z,228
2017-02-07T08:05:43.010Z,228
2017-02-07T08:06:23.485Z,224
2017-02-07T08:07:04.013Z,232
2017-02-07T08:07:44.527Z,232
2017-02-07T08:08:25.027Z,228
2017-02-07T08:09:05.544Z,228
2017-02-07T08:09:46.032Z,224
2017-02-07T08:10:26.552Z,224
2017-02-07T08:11:07.075Z,232
2017-02-07T08:11:47.569Z,244
2017-02-07T08:12:28.077Z,244
2017-02-07T08:13:08.576Z,236
2017-02-07T08:13:49.099Z,232
2017-02-07T08:14:29.612Z,232
2017-02-07T08:15:10.124Z,228
2017-02-07T08:15:50.628Z,224
2017-02-07T08:16:31.133Z,224
2017-02-07T08:17:11.647Z,228
2017-02-07T08:17:52.136Z,232
2017-02-07T08:18:32.646Z,236
2017-02-07T08:19:13.156Z,236
2017-02-07T08:19:53.675Z,232
2017-02-07T08:20:34.179Z,228
2017-02-07T08:21:14.714Z,228
2017-02-07T08:21:55.227Z,232
2017-02-07T08:22:35.751Z,240
2017-02-07T08:23:16.263Z,252
2017-02-07T08:23:56.772Z,252
2017-02-07T08:24:37.285Z,248
2017-02-07T08:25:17.782Z,244
2017-02-07T08:25:58.300Z,248
2017-02-07T08:26:38.781Z,252
2017-02-07T08:27:19.295Z,264
2017-02-07T08:27:59.789Z,268
2017-02-07T08:28:40.276Z,272
2017-02-07T08:29:20.777Z,272
2017-02-07T08:30:01.304Z,264
2017-02-07T08:30:41.810Z,252
2017-02-07T08:31:22.316Z,228
2017-02-07T08:32:02.819Z,208
2017-02-07T08:32:43.368Z,204
2017-02-07T08:33:23.867Z,200
2017-02-07T08:34:04.380Z,196
2017-02-07T08:34:44.871Z,188
2017-02-07T08:35:25.386Z,184
2017-02-07T08:36:05.880Z,184
2017-02-07T08:36:46.401Z,180
2017-02-07T08:37:26.899Z,184
2017-02-07T08:38:07.404Z,180
2017-02-07T08:38:47.907Z,180
2017-02-07T08:39:28.457Z,176
2017-02-07T08:40:08.921Z,184
2017-02-07T08:40:49.437Z,184
2017-02-07T08:41:29.942Z,192
2017-02-07T08:42:10.433Z,208
2017-02-07T08:42:50.950Z,228
2017-02-07T08:43:31.444Z,236
2017-02-07T08:44:11.961Z,244
2017-02-07T08:44:52.479Z,260
2017-02-07T08:45:32.984Z,268
2017-02-07T08:46:13.486Z,280
2017-02-07T08:46:54.014Z,296
2017-02-07T08:47:34.516Z,308
2017-02-07T08:48:15.052Z,312
2017-02-07T08:48:55.541Z,320
2017-02-07T08:49:36.044Z,312
2017-02-07T08:50:16.560Z,324
2017-02-07T08:50:57.075Z,328
2017-02-07T08:51:37.586Z,332
2017-02-07T08:52:18.099Z,348
2017-02-07T08:52:58.600Z,360
2017-02-07T08:53:39.113Z,376
2017-02-07T08:54:19.620Z,392
2017-02-07T08:55:00.150Z,428
2017-02-07T08:55:40.642Z,440
2017-02-07T08:56:21.153Z,460
2017-02-07T08:57:01.649Z,480
2017-02-07T08:57:42.169Z,504
2017-02-07T08:58:22.670Z,520
2017-02-07T08:59:03.160Z,572
2017-02-07T08:59:43.647Z,612
2017-02-07T09:00:24.155Z,636
2017-02-07T09:01:04.653Z,660
2017-02-07T09:01:45.142Z,664
2017-02-07T09:02:25.625Z,656
2017-02-07T09:03:06.164Z,668
2017-02-07T09:03:46.694Z,724
2017-02-07T09:04:27.207Z,740
2017-02-07T09:05:07.705Z,744
2017-02-07T09:05:48.224Z,772
2017-02-07T09:06:28.731Z,796
2017-02-07T09:07:09.250Z,824
2017-02-07T09:07:49.768Z,884
2017-02-07T09:08:30.261Z,956
2017-02-07T09:09:10.796Z,1008
2017-02-07T09:09:51.303Z,1012
2017-02-07T09:10:31.814Z,988
2017-02-07T09:11:12.322Z,988
2017-02-07T09:11:52.840Z,1028
2017-02-07T09:12:33.368Z,1088
2017-02-07T09:13:13.848Z,1080
2017-02-07T09:13:54.368Z,1196
2017-02-07T09:14:34.903Z,1204
2017-02-07T09:15:15.407Z,1224
2017-02-07T09:15:55.912Z,1232
2017-02-07T09:16:36.420Z,1248
2017-02-07T09:17:16.929Z,1284
2017-02-07T09:17:57.434Z,1188
2017-02-07T09:18:37.933Z,1136
2017-02-07T09:19:18.433Z,1140
2017-02-07T09:19:58.940Z,1156
2017-02-07T09:20:39.451Z,1136
2017-02-07T09:21:19.975Z,1060
2017-02-07T09:22:00.517Z,1028
2017-02-07T09:22:41.029Z,1012
2017-02-07T09:23:21.552Z,1016
2017-02-07T09:24:02.064Z,1000
2017-02-07T09:24:42.560Z,1000
2017-02-07T09:25:23.082Z,1000
2017-02-07T09:26:03.600Z,1000
2017-02-07T09:26:44.102Z,1008
2017-02-07T09:27:24.635Z,1036
2017-02-07T09:28:05.113Z,1044
2017-02-07T09:28:45.634Z,1064
2017-02-07T09:29:26.151Z,1076
2017-02-07T09:30:06.653Z,1148
2017-02-07T09:30:47.188Z,1220
2017-02-07T09:31:27.704Z,1272
2017-02-07T09:32:08.218Z,1340
2017-02-07T09:32:48.742Z,1356
2017-02-07T09:33:29.248Z,1364
2017-02-07T09:34:09.767Z,1412
2017-02-07T09:34:50.270Z,1440
2017-02-07T09:35:30.780Z,1440
2017-02-07T09:36:11.291Z,1412
2017-02-07T09:36:51.788Z,1384
2017-02-07T09:37:32.312Z,1356
2017-02-07T09:38:12.822Z,1316
2017-02-07T09:38:53.355Z,1304
2017-02-07T09:39:33.865Z,1300
2017-02-07T09:40:14.390Z,1268
2017-02-07T09:40:54.891Z,1236
2017-02-07T09:41:35.417Z,1184
2017-02-07T09:42:15.933Z,1132
2017-02-07T09:42:56.435Z,1124
2017-02-07T09:43:36.921Z,1076
2017-02-07T09:44:17.417Z,1016
2017-02-07T09:44:58.481Z,988
2017-02-07T09:45:39.003Z,960
2017-02-07T09:46:19.505Z,968
2017-02-07T09:47:00.029Z,968
2017-02-07T09:47:40.534Z,944
2017-02-07T09:48:21.032Z,960
2017-02-07T09:49:01.544Z,956
2017-02-07T09:49:42.052Z,960
2017-02-07T09:50:22.560Z,960
2017-02-07T09:51:03.080Z,952
2017-02-07T09:51:43.568Z,956
2017-02-07T09:52:24.097Z,964
2017-02-07T09:53:04.595Z,972
2017-02-07T09:53:45.107Z,964
2017-02-07T09:54:25.630Z,952
2017-02-07T09:55:06.150Z,920
2017-02-07T09:55:46.671Z,916
2017-02-07T09:56:27.190Z,892
2017-02-07T09:57:07.697Z,880
2017-02-07T09:57:48.206Z,876
2017-02-07T09:58:28.691Z,872
2017-02-07T09:59:09.211Z,856
2017-02-07T09:59:49.724Z,836
2017-02-07T10:00:30.229Z,828
2017-02-07T10:01:10.759Z,832
2017-02-07T10:01:51.264Z,832
2017-02-07T10:02:31.799Z,820
2017-02-07T10:03:12.315Z,824
2017-02-07T10:03:52.842Z,808
2017-02-07T10:04:33.358Z,804
2017-02-07T10:05:13.866Z,792
2017-02-07T10:05:54.383Z,796
2017-02-07T10:06:34.903Z,792
2017-02-07T10:07:15.397Z,804
2017-02-07T10:07:55.909Z,816
2017-02-07T10:08:36.415Z,832
2017-02-07T10:09:17.645Z,856
2017-02-07T10:09:58.159Z,872
2017-02-07T10:10:38.666Z,868
2017-02-07T10:11:19.174Z,840
2017-02-07T10:11:59.715Z,928
2017-02-07T10:12:40.229Z,936
2017-02-07T10:13:20.723Z,936
2017-02-07T10:14:01.217Z,944
2017-02-07T10:14:41.743Z,948
2017-02-07T10:15:22.305Z,952
2017-02-07T10:16:02.755Z,944
2017-02-07T10:16:44.144Z,932
2017-02-07T10:17:25.609Z,928
2017-02-07T10:18:06.117Z,932
2017-02-07T10:18:46.628Z,956
2017-02-07T10:19:27.184Z,992
2017-02-07T10:20:07.673Z,1004
2017-02-07T10:20:48.163Z,1032
2017-02-07T10:21:28.660Z,1072
2017-02-07T10:22:09.169Z,1084
2017-02-07T10:22:49.661Z,1100
2017-02-07T10:23:30.170Z,1120
2017-02-07T10:24:10.670Z,1104
2017-02-07T10:24:51.160Z,1136
2017-02-07T10:25:31.687Z,1184
2017-02-07T10:26:12.190Z,1216
2017-02-07T10:26:52.709Z,1256
2017-02-07T10:27:33.211Z,1300
2017-02-07T10:28:13.721Z,1324
2017-02-07T10:28:54.246Z,1364
2017-02-07T10:29:34.738Z,1408
2017-02-07T10:30:15.256Z,1416
2017-02-07T10:30:55.760Z,1456
2017-02-07T10:31:36.269Z,1468
2017-02-07T10:32:16.814Z,1440
2017-02-07T10:32:57.383Z,1520
2017-02-07T10:33:37.800Z,1540
2017-02-07T10:34:18.308Z,1568
2017-02-07T10:34:59.485Z,1544
2017-02-07T10:35:40.046Z,1512
2017-02-07T10:36:20.553Z,1480
2017-02-07T10:37:01.066Z,1480
2017-02-07T10:37:41.628Z,1484
2017-02-07T10:38:22.119Z,1552
2017-02-07T10:39:02.649Z,1632
2017-02-07T10:39:43.172Z,1680
2017-02-07T10:40:23.690Z,1648
2017-02-07T10:41:04.209Z,1576
2017-02-07T10:41:44.711Z,1468
2017-02-07T10:42:25.237Z,1404
2017-02-07T10:43:05.741Z,1384
2017-02-07T10:43:46.271Z,1388